To NAV CANADA Home Page Login to a new session Search on AWWS site Feedback and Comments Disclaimer Vers la page française équivalente Tips FAQ What's new on the site To the Forecasts and Observations / NOTAM section To "File a Flight Plan" website Publications and other links Update of the User's profile FIC Telephone Numbers My Weather Data Folder Route Weather Data Regional Weather Data Local Weather Data To the Forecasts and Observations / NOTAM section
Request Generated 04/21/2014 at 02:18:05 UTC . Weather information available at that time is displayed.

METAR/TAF

THOMPSON/MB    

METAR CYTH 210200Z 21004KT 15SM BKN050 BKN150 02/M01 A2999 RMK SC5AC1 SLP171=
METAR CYTH 210100Z 20004KT 15SM FEW042 FEW150 03/M01 A2998 RMK SC2AC1 SLP167=
METAR CYTH 210000Z 19004KT 15SM FEW040 03/M00 A2998 RMK SC2 SLP166=

TAF CYTH 210043Z 2101/2113 VRB03KT P6SM BKN030
BECMG 2101/2103 SCT030
RMK NXT FCST BY 210700Z=
Your time UTC time
Weather data provided by Environment Canada and NAV CANADA